Station: Badgingarra  

  Atmospheric Gas Attenuation - ITU Rec 676-11   ----------------- dB/100km -----------------
Date Time Temp RH % AH g/m3 Dew Point Wind Direction Speed kph Gust kph Barometer mB Rainfall Since 9am 24GHz 47GHz 76GHz 122GHz 134GHz 241GHz
04/05 11:10 19.2 51 8.41 8.8 24 30 1013.1 0 18.9 24.1 36.5 95.7 89.5 308.0
04/05 11:00 18.6 49 7.8 7.7 24 32 1013.1 0 17.7 23.3 34.5 90.4 82.8 284.4
04/05 10:50 18.3 50 7.82 7.7 26 32 1013.1 0 17.7 23.4 34.7 90.9 83.3 286.3
04/05 10:40 18.7 49 7.84 8 28 32 1013.1 0 17.8 23.4 34.6 90.7 83.2 285.7
04/05 10:30 17.9 52 7.94 7.9 28 37 1013.1 0 18.0 23.7 35.3 92.6 85.2 292.8
04/05 10:20 17.8 52 7.89 7.8 33 37 1013.1 0 17.9 23.7 35.2 92.2 84.7 291.1
04/05 10:10 17.5 52 7.75 7.5 28 33 1013.1 0 17.6 23.6 34.8 91.1 83.3 286.2
04/05 10:00 17.3 53 7.81 7.6 26 35 1013.1 0 17.7 23.7 35.1 92.0 84.3 289.5
04/05 09:50 16.9 55 7.91 8 28 33 1013.1 0 18.0 23.9 35.7 93.4 85.9 295.2
04/05 09:40 16.9 58 8.34 8.6 26 30 1013.1 0 18.9 24.6 37.3 97.8 91.3 314.0
04/05 09:30 16 60 8.17 8.2 24 32 1013.1 0 18.6 24.6 37.0 97.1 90.2 310.0
04/05 09:20 15.4 61 8.01 8.1 22 26 1013.1 0 18.3 24.5 36.7 96.2 88.8 305.2
04/05 09:10 15.2 64 8.31 8.4 24 30 1013.1 0 18.9 25.0 38.0 99.6 92.9 319.4
04/05 09:00 14.6 64 8.01 7.9 26 32 1013.1 0 18.3 24.7 37.1 97.2 89.8 308.3
04/05 08:50 14.2 65 7.94 7.7 26 30 1013.1 0 18.2 24.7 37.0 97.0 89.3 306.7
04/05 08:40 13.8 66 7.86 7.7 22 26 1013.1 0 18.0 24.7 36.9 96.6 88.7 304.7
04/05 08:30 13.4 68 7.91 7.6 22 30 1013.1 0 18.1 24.9 37.2 97.6 89.8 308.5
04/05 08:20 13.3 70 8.09 7.9 17 20 1013.1 0 18.5 25.2 38.0 99.6 92.3 317.1
04/05 08:10 12.6 69 7.63 7.2 17 19 1013.1 0 17.6 24.7 36.5 95.7 87.1 298.9
04/05 08:00 12.2 72 7.77 7.3 17 24 1013.1 0 17.9 25.0 37.2 97.6 89.4 306.8
04/05 07:50 11.8 73 7.68 7.1 19 20 1013.1 0 17.7 25.0 37.1 97.2 88.7 304.2
04/05 07:40 11.6 72 7.48 6.7 20 22 1013.1 0 17.3 24.7 36.4 95.3 86.3 295.8
04/05 07:30 11.4 73 7.49 6.7 13 24 1013.1 0 17.3 24.8 36.5 95.6 86.6 297.0
04/05 07:20 11.4 72 7.39 6.5 17 19 1013.1 0 17.1 24.6 36.1 94.6 85.3 292.4
04/05 07:10 11.2 73 7.4 6.5 13 17 1013.1 0 17.1 24.7 36.2 94.9 85.7 293.6
04/05 07:00 10.8 75 7.41 6.6 15 22 1013.1 0 17.2 24.8 36.5 95.5 86.3 295.6
04/05 06:50 10.3 76 7.28 6.2 15 19 1013.1 0 16.9 24.7 36.2 94.7 85.1 291.5
04/05 06:40 10.7 75 7.37 6.4 19 20 1013.1 0 17.1 24.8 36.3 95.2 85.8 294.1
04/05 06:30 10.7 75 7.37 6.5 22 30 1013.1 0 17.1 24.8 36.3 95.2 85.8 294.1
04/05 06:20 10.7 75 7.37 6.4 22 26 1013.1 0 17.1 24.8 36.3 95.2 85.8 294.1
04/05 06:10 10.7 75 7.37 6.4 22 26 1013.1 0 17.1 24.8 36.3 95.2 85.8 294.1
04/05 06:00 11 74 7.41 6.6 22 30 1013.1 0 17.2 24.8 36.4 95.3 86.0 294.8
04/05 05:50 11 74 7.41 6.5 24 33 1013.1 0 17.2 24.8 36.4 95.3 86.0 294.8
04/05 05:40 11 74 7.41 6.5 24 28 1013.1 0 17.2 24.8 36.4 95.3 86.0 294.8
04/05 05:30 11 75 7.51 6.7 24 32 1013.1 0 17.4 24.9 36.8 96.3 87.4 299.5
04/05 05:20 11.1 74 7.46 6.6 24 30 1013.1 0 17.3 24.8 36.5 95.7 86.6 296.8
04/05 05:10 11.3 74 7.55 6.8 26 30 1013.1 0 17.5 24.9 36.8 96.4 87.5 300.2
04/05 05:00 11.3 74 7.55 6.8 19 26 1013.1 0 17.5 24.9 36.8 96.4 87.5 300.2
04/05 04:50 11.4 73 7.49 6.7 15 19 1013.1 0 17.3 24.8 36.5 95.6 86.6 297.0
04/05 04:40 11.4 74 7.6 6.9 17 20 1013.1 0 17.6 25.0 36.9 96.8 88.1 302.1
04/05 04:30 11.5 73 7.54 6.8 17 24 1013.1 0 17.4 24.8 36.7 96.1 87.2 298.9
04/05 04:20 11.7 73 7.64 7 19 24 1013.1 0 17.6 24.9 37.0 96.9 88.3 302.8
04/05 04:10 11.1 76 7.66 7 17 20 1013.1 0 17.7 25.1 37.3 97.8 89.2 306.0
04/05 04:00 10.9 76 7.56 6.8 15 19 1013.1 0 17.5 25.0 37.0 97.0 88.1 302.1
04/05 03:50 11 75 7.51 6.7 15 17 1013.1 0 17.4 24.9 36.8 96.3 87.4 299.5
04/05 03:40 11.4 72 7.39 6.5 15 17 1013.1 0 17.1 24.6 36.1 94.6 85.3 292.4
04/05 03:30 11.7 72 7.53 6.8 15 20 1013.1 0 17.4 24.8 36.5 95.7 86.8 297.7
04/05 03:20 11.7 72 7.53 6.8 17 20 1013.1 0 17.4 24.8 36.5 95.7 86.8 297.7
04/05 03:10 11.3 73 7.45 6.6 15 17 1013.1 0 17.2 24.7 36.4 95.3 86.2 295.6
04/05 03:00 11.7 72 7.53 6.8 13 19 1013.1 0 17.4 24.8 36.5 95.7 86.8 297.7
04/05 02:50 11.8 71 7.47 6.7 13 13 1013.1 0 17.3 24.6 36.2 94.9 85.9 294.6
04/05 02:40 11.8 72 7.58 6.9 15 17 1013.1 0 17.5 24.8 36.7 96.1 87.4 299.6
04/05 02:30 12 71 7.57 6.9 13 17 1013.1 0 17.5 24.7 36.5 95.8 87.0 298.4
04/05 02:20 12.2 71 7.66 7.1 15 17 1013.1 0 17.7 24.8 36.8 96.5 88.0 301.8
04/05 02:10 12 71 7.57 6.9 15 17 1013.1 0 17.5 24.7 36.5 95.8 87.0 298.4
04/05 02:00 12 72 7.67 7.1 13 19 1013.1 0 17.7 24.9 36.9 96.8 88.3 303.0
04/05 01:50 12.1 71 7.61 7 13 15 1013.1 0 17.6 24.8 36.7 96.1 87.4 299.9
04/05 01:40 12.2 70 7.55 6.9 15 17 1013.1 0 17.4 24.7 36.4 95.3 86.5 296.8
04/05 01:30 12.4 70 7.65 7.1 17 20 1013.1 0 17.6 24.8 36.7 96.1 87.6 300.5
04/05 01:20 12.4 69 7.54 7 15 17 1013.1 0 17.4 24.6 36.2 95.0 86.2 295.5
04/05 01:10 12.4 69 7.54 7 15 19 1013.1 0 17.4 24.6 36.2 95.0 86.2 295.5
04/05 01:00 12.4 70 7.65 7.1 17 22 1013.1 0 17.6 24.8 36.7 96.1 87.6 300.5
04/05 00:50 12.4 69 7.54 7 17 19 1013.1 0 17.4 24.6 36.2 95.0 86.2 295.5
04/05 00:40 12.4 69 7.54 7 17 20 1013.1 0 17.4 24.6 36.2 95.0 86.2 295.5
04/05 00:30 12.4 70 7.65 7.1 17 20 1013.1 0 17.6 24.8 36.7 96.1 87.6 300.5
04/05 00:20 12.6 69 7.63 7.2 15 17 1013.1 0 17.6 24.7 36.5 95.7 87.1 298.9
04/05 00:10 12.5 71 7.81 7.4 17 19 1013.1 0 18.0 25.0 37.3 97.7 89.6 307.5
04/05 00:00 12.5 71 7.81 7.4 17 20 1013.1 0 18.0 25.0 37.3 97.7 89.6 307.5
03/05 23:50 12.6 70 7.74 7.4 17 20 1013.1 0 17.8 24.8 36.9 96.8 88.6 303.9
03/05 23:40 12.4 72 7.87 7.5 17 19 1013.1 0 18.1 25.1 37.6 98.4 90.5 310.6
03/05 23:30 12.3 72 7.82 7.4 13 17 1013.1 0 18.0 25.1 37.4 98.0 89.9 308.7
03/05 23:20 12.5 71 7.81 7.4 15 17 1013.1 0 18.0 25.0 37.3 97.7 89.6 307.5
03/05 23:10 12.8 70 7.84 7.6 19 20 1013.1 0 18.0 25.0 37.2 97.6 89.6 307.7
03/05 23:00 12.8 71 7.95 7.7 17 22 1013.1 0 18.2 25.1 37.7 98.8 91.1 312.7
03/05 22:50 12.7 70 7.79 7.5 15 17 1013.1 0 17.9 24.9 37.1 97.2 89.1 305.8
03/05 22:40 12.7 71 7.9 7.7 20 22 1013.1 0 18.1 25.1 37.5 98.4 90.5 310.8
03/05 22:30 12.6 72 7.97 7.7 19 22 1013.1 0 18.3 25.2 37.9 99.3 91.6 314.4
03/05 22:20 12.5 72 7.92 7.6 15 20 1013.1 0 18.2 25.2 37.7 98.9 91.0 312.5
03/05 22:10 12.5 72 7.92 7.6 13 15 1013.1 0 18.2 25.2 37.7 98.9 91.0 312.5
03/05 22:00 12.7 71 7.9 7.6 17 20 1013.1 0 18.1 25.1 37.5 98.4 90.5 310.8
03/05 21:50 12.9 69 7.78 7.5 17 19 1013.1 0 17.9 24.8 37.0 96.9 88.7 304.5
03/05 21:40 13.1 70 7.99 7.7 17 20 1013.1 0 18.3 25.1 37.7 98.8 91.2 313.3
03/05 21:30 13.1 70 7.99 7.8 19 24 1013.1 0 18.3 25.1 37.7 98.8 91.2 313.3
03/05 21:20 13.3 70 8.09 7.9 17 19 1013.1 0 18.5 25.2 38.0 99.6 92.3 317.1
03/05 21:10 13.1 70 7.99 7.7 15 19 1013.1 0 18.3 25.1 37.7 98.8 91.2 313.3
03/05 21:00 13.4 69 8.02 7.8 17 22 1013.1 0 18.4 25.1 37.7 98.8 91.3 313.5
03/05 20:50 13.6 69 8.12 8 19 20 1013.1 0 18.6 25.2 38.0 99.6 92.3 317.3
03/05 20:40 13.9 68 8.15 8.1 20 24 1013.1 0 18.6 25.1 38.0 99.5 92.4 317.4
03/05 20:30 13.9 67 8.03 7.9 19 26 1013.1 0 18.4 24.9 37.5 98.3 90.8 312.0
03/05 20:20 14.2 66 8.06 7.9 20 24 1013.1 0 18.4 24.9 37.5 98.2 90.9 312.1
03/05 20:10 14.3 65 7.99 7.8 20 24 1013.1 0 18.3 24.8 37.1 97.4 89.8 308.6
03/05 20:00 14.6 64 8.01 7.9 24 33 1013.1 0 18.3 24.7 37.1 97.2 89.8 308.3
03/05 19:50 14.8 64 8.11 8 22 28 1013.1 0 18.5 24.8 37.4 98.0 90.8 312.0
03/05 19:40 14.7 63 7.93 7.9 19 20 1013.1 0 18.1 24.6 36.7 96.2 88.6 304.4
03/05 19:30 14.8 64 8.11 8.1 19 24 1013.1 0 18.5 24.8 37.4 98.0 90.8 312.0
03/05 19:20 15 64 8.21 8.2 19 22 1013.1 0 18.7 24.9 37.7 98.8 91.9 315.7
03/05 19:10 15.1 63 8.13 8.1 15 17 1013.1 0 18.5 24.8 37.3 97.8 90.7 311.7
03/05 19:00 15.3 62 8.1 8.1 17 20 1013.1 0 18.5 24.7 37.1 97.3 90.1 309.6
03/05 18:50 15.3 61 7.97 8 15 15 1013.1 0 18.2 24.5 36.6 95.9 88.5 303.9
03/05 18:40 15.5 62 8.2 8.2 17 20 1013.1 0 18.7 24.8 37.4 98.1 91.1 313.3

Last Refresh: 04-May-2026 12:43:59

Bureau of Meteorology